createdAt,value
2019-03-18T00:00:54.828Z,990.08
2019-03-18T00:01:54.803Z,989.98
2019-03-18T00:02:54.785Z,990.03
2019-03-18T00:03:54.768Z,990.06
2019-03-18T00:04:54.752Z,990.07
2019-03-18T00:05:54.740Z,990.06
2019-03-18T00:06:54.712Z,990.05
2019-03-18T00:07:54.751Z,990.11
2019-03-18T00:08:54.666Z,990.12
2019-03-18T00:09:54.655Z,990.10
2019-03-18T00:10:54.627Z,990.11
2019-03-18T00:11:54.609Z,990.17
2019-03-18T00:12:54.586Z,990.15
2019-03-18T00:13:54.564Z,990.18
2019-03-18T00:15:01.233Z,990.13
2019-03-18T00:15:54.531Z,990.15
2019-03-18T00:16:54.506Z,990.14
2019-03-18T00:17:54.479Z,990.07
2019-03-18T00:18:54.455Z,990.13
2019-03-18T00:19:54.456Z,990.05
2019-03-18T00:20:54.429Z,990.03
2019-03-18T00:21:54.422Z,990.00
2019-03-18T00:22:54.386Z,989.97
2019-03-18T00:23:54.368Z,989.95
2019-03-18T00:24:54.340Z,989.99
2019-03-18T00:25:54.339Z,989.99
2019-03-18T00:26:54.299Z,989.96
2019-03-18T00:27:54.279Z,990.00
2019-03-18T00:28:54.261Z,989.97
2019-03-18T00:29:54.245Z,990.02
2019-03-18T00:30:54.217Z,990.02
2019-03-18T00:31:54.203Z,990.04
2019-03-18T00:32:54.176Z,990.07
2019-03-18T00:33:54.157Z,990.02
2019-03-18T00:34:54.134Z,990.10
2019-03-18T00:35:54.117Z,990.11
2019-03-18T00:36:54.114Z,990.13
2019-03-18T00:37:54.076Z,990.10
2019-03-18T00:38:54.053Z,990.06
2019-03-18T00:39:54.035Z,990.06
2019-03-18T00:40:54.025Z,990.08
2019-03-18T00:41:54.021Z,990.15
2019-03-18T00:42:53.978Z,990.15
2019-03-18T00:43:53.954Z,990.16
2019-03-18T00:44:53.931Z,990.20
2019-03-18T00:45:53.914Z,990.26
2019-03-18T00:46:53.891Z,990.26
2019-03-18T00:47:53.892Z,990.30
2019-03-18T00:48:53.852Z,990.35
2019-03-18T00:49:53.832Z,990.34
2019-03-18T00:50:53.815Z,990.35
2019-03-18T00:51:53.795Z,990.35
2019-03-18T00:52:53.770Z,990.35
2019-03-18T00:53:53.746Z,990.35
2019-03-18T00:54:53.728Z,990.37
2019-03-18T00:55:53.713Z,990.35
2019-03-18T00:56:53.689Z,990.37
2019-03-18T00:57:53.667Z,990.40
2019-03-18T00:58:53.649Z,990.35
2019-03-18T00:59:53.631Z,990.35
2019-03-18T01:00:53.607Z,990.37
2019-03-18T01:01:53.586Z,990.36
2019-03-18T01:02:53.567Z,990.41
2019-03-18T01:03:53.542Z,990.33
2019-03-18T01:04:53.526Z,990.34
2019-03-18T01:05:53.505Z,990.37
2019-03-18T01:06:53.486Z,990.38
2019-03-18T01:07:53.465Z,990.39
2019-03-18T01:08:53.448Z,990.38
2019-03-18T01:09:53.422Z,990.36
2019-03-18T01:10:53.402Z,990.35
2019-03-18T01:11:53.383Z,990.34
2019-03-18T01:12:53.364Z,990.42
2019-03-18T01:13:53.339Z,990.38
2019-03-18T01:14:53.321Z,990.34
2019-03-18T01:15:53.299Z,990.35
2019-03-18T01:16:53.284Z,990.30
2019-03-18T01:17:53.261Z,990.33
2019-03-18T01:18:53.240Z,990.37
2019-03-18T01:19:53.219Z,990.35
2019-03-18T01:20:53.198Z,990.38
2019-03-18T01:21:53.178Z,990.29
2019-03-18T01:22:53.157Z,990.27
2019-03-18T01:23:53.131Z,990.34
2019-03-18T01:24:53.116Z,990.33
2019-03-18T01:25:53.114Z,990.35
2019-03-18T01:26:53.074Z,990.28
2019-03-18T01:27:53.073Z,990.29
2019-03-18T01:28:53.036Z,990.23
2019-03-18T01:29:53.013Z,990.27
2019-03-18T01:30:52.994Z,990.20
2019-03-18T01:31:52.973Z,990.28
2019-03-18T01:32:52.950Z,990.22
2019-03-18T01:33:52.934Z,990.27
2019-03-18T01:34:52.912Z,990.22
2019-03-18T01:35:52.892Z,990.17
2019-03-18T01:36:52.875Z,990.26
2019-03-18T01:37:52.850Z,990.21
2019-03-18T01:38:52.831Z,990.22
2019-03-18T01:39:52.808Z,990.29
2019-03-18T01:40:52.788Z,990.24
2019-03-18T01:41:52.782Z,990.26
2019-03-18T01:42:52.744Z,990.33
2019-03-18T01:43:52.727Z,990.27
2019-03-18T01:44:52.712Z,990.34
2019-03-18T01:45:52.686Z,990.33
2019-03-18T01:46:52.666Z,990.37
2019-03-18T01:47:52.647Z,990.38
2019-03-18T01:48:52.640Z,990.39
2019-03-18T01:49:52.602Z,990.37
2019-03-18T01:50:52.604Z,990.43
2019-03-18T01:51:52.566Z,990.47
2019-03-18T01:52:52.541Z,990.42
2019-03-18T01:53:52.521Z,990.44
2019-03-18T01:54:52.501Z,990.52
2019-03-18T01:55:52.479Z,990.50
2019-03-18T01:56:52.461Z,990.52
2019-03-18T01:57:52.439Z,990.47
2019-03-18T01:58:52.419Z,990.52
2019-03-18T01:59:52.407Z,990.52
2019-03-18T02:00:52.383Z,990.47
2019-03-18T02:01:52.356Z,990.45
2019-03-18T02:02:52.336Z,990.49
2019-03-18T02:03:52.316Z,990.49
2019-03-18T02:04:52.298Z,990.50
2019-03-18T02:05:52.282Z,990.46
2019-03-18T02:06:52.259Z,990.48
2019-03-18T02:07:52.243Z,990.45
2019-03-18T02:08:52.221Z,990.44
2019-03-18T02:09:52.188Z,990.47
2019-03-18T02:10:52.172Z,990.44
2019-03-18T02:11:52.150Z,990.42
2019-03-18T02:12:52.132Z,990.41
2019-03-18T02:13:52.112Z,990.39
2019-03-18T02:14:52.090Z,990.41
2019-03-18T02:15:53.617Z,990.43
2019-03-18T02:16:52.050Z,990.42
2019-03-18T02:17:52.043Z,990.41
2019-03-18T02:18:52.006Z,990.39
2019-03-18T02:19:51.986Z,990.44
2019-03-18T02:20:51.968Z,990.39
2019-03-18T02:21:51.944Z,990.46
2019-03-18T02:22:51.925Z,990.44
2019-03-18T02:23:51.923Z,990.44
2019-03-18T02:24:51.884Z,990.45
2019-03-18T02:25:51.866Z,990.49
2019-03-18T02:26:51.844Z,990.49
2019-03-18T02:27:51.823Z,990.49
2019-03-18T02:28:51.803Z,990.56
2019-03-18T02:29:51.779Z,990.57
2019-03-18T02:30:51.763Z,990.58
2019-03-18T02:31:51.740Z,990.55
2019-03-18T02:32:51.721Z,990.60
2019-03-18T02:33:51.710Z,990.58
2019-03-18T02:34:51.681Z,990.62
2019-03-18T02:35:51.659Z,990.61
2019-03-18T02:36:51.637Z,990.61
2019-03-18T02:37:51.622Z,990.60
2019-03-18T02:38:51.594Z,990.59
2019-03-18T02:39:51.568Z,990.63
2019-03-18T02:40:51.553Z,990.62
2019-03-18T02:41:51.531Z,990.66
2019-03-18T02:42:51.513Z,990.72
2019-03-18T02:43:51.494Z,990.70
2019-03-18T02:44:51.493Z,990.70
2019-03-18T02:45:51.450Z,990.73
2019-03-18T02:46:51.430Z,990.70
2019-03-18T02:47:51.410Z,990.67
2019-03-18T02:48:51.392Z,990.66
2019-03-18T02:49:51.366Z,990.64
2019-03-18T02:50:51.369Z,990.65
2019-03-18T02:51:53.063Z,990.63
2019-03-18T02:52:51.314Z,990.62
2019-03-18T02:53:51.283Z,990.63
2019-03-18T02:54:51.263Z,990.64
2019-03-18T02:55:51.248Z,990.66
2019-03-18T02:56:51.222Z,990.64
2019-03-18T02:57:51.207Z,990.58
2019-03-18T02:58:51.185Z,990.58
2019-03-18T02:59:51.173Z,990.59
2019-03-18T03:00:51.139Z,990.57
2019-03-18T03:01:51.122Z,990.57
2019-03-18T03:02:51.100Z,990.56
2019-03-18T03:03:51.081Z,990.64
2019-03-18T03:04:51.057Z,990.59
2019-03-18T03:05:51.035Z,990.61
2019-03-18T03:06:51.015Z,990.61
2019-03-18T03:07:50.995Z,990.64
2019-03-18T03:08:50.974Z,990.65
2019-03-18T03:09:50.956Z,990.65
2019-03-18T03:10:50.929Z,990.63
2019-03-18T03:11:50.912Z,990.62
2019-03-18T03:12:50.912Z,990.64
2019-03-18T03:13:50.869Z,990.63
2019-03-18T03:14:50.848Z,990.60
2019-03-18T03:15:50.829Z,990.61
2019-03-18T03:16:50.809Z,990.58
2019-03-18T03:17:50.785Z,990.55
2019-03-18T03:18:50.768Z,990.59
2019-03-18T03:19:50.748Z,990.56
2019-03-18T03:20:50.726Z,990.55
2019-03-18T03:21:50.703Z,990.50
2019-03-18T03:22:50.684Z,990.52
2019-03-18T03:23:50.666Z,990.59
2019-03-18T03:24:50.646Z,990.58
2019-03-18T03:25:50.620Z,990.60
2019-03-18T03:26:50.600Z,990.65
2019-03-18T03:27:50.579Z,990.58
2019-03-18T03:28:50.579Z,990.64
2019-03-18T03:29:50.544Z,990.61
2019-03-18T03:30:50.518Z,990.67
2019-03-18T03:31:50.504Z,990.70
2019-03-18T03:32:50.483Z,990.66
2019-03-18T03:33:50.456Z,990.76
2019-03-18T03:34:50.439Z,990.75
2019-03-18T03:35:50.477Z,990.77
2019-03-18T03:36:50.393Z,990.76
2019-03-18T03:37:50.373Z,990.79
2019-03-18T03:38:50.351Z,990.79
2019-03-18T03:39:50.332Z,990.83
2019-03-18T03:40:50.314Z,990.91
2019-03-18T03:41:50.290Z,990.89
2019-03-18T03:42:50.266Z,990.89
2019-03-18T03:43:50.266Z,990.90
2019-03-18T03:44:50.248Z,990.94
2019-03-18T03:45:50.208Z,990.89
2019-03-18T03:46:50.186Z,990.91
2019-03-18T03:47:50.165Z,990.90
2019-03-18T03:48:50.145Z,990.92
2019-03-18T03:49:50.122Z,991.01
2019-03-18T03:50:50.107Z,990.99
2019-03-18T03:51:50.084Z,991.04
2019-03-18T03:52:50.103Z,991.04
2019-03-18T03:53:50.038Z,991.07
2019-03-18T03:54:50.019Z,991.11
2019-03-18T03:55:50.014Z,991.08
2019-03-18T03:56:49.983Z,991.13
2019-03-18T03:57:49.958Z,991.09
2019-03-18T03:58:49.938Z,991.12
2019-03-18T03:59:49.915Z,991.08
2019-03-18T04:00:49.949Z,991.17
2019-03-18T04:01:49.898Z,991.12
2019-03-18T04:02:49.857Z,991.18
2019-03-18T04:03:49.832Z,991.15
2019-03-18T04:04:49.814Z,991.22
2019-03-18T04:05:49.794Z,991.18
2019-03-18T04:06:49.773Z,991.14
2019-03-18T04:07:49.754Z,991.20
2019-03-18T04:08:49.729Z,991.22
2019-03-18T04:09:49.721Z,991.27
2019-03-18T04:10:49.691Z,991.26
2019-03-18T04:11:49.668Z,991.25
2019-03-18T04:12:49.648Z,991.27
2019-03-18T04:13:49.628Z,991.21
2019-03-18T04:14:49.606Z,991.17
2019-03-18T04:15:49.588Z,991.16
2019-03-18T04:17:00.851Z,991.11
2019-03-18T04:17:49.549Z,991.15
2019-03-18T04:18:49.529Z,991.17
2019-03-18T04:19:49.507Z,991.16
2019-03-18T04:20:49.478Z,991.15
2019-03-18T04:21:50.888Z,991.15
2019-03-18T04:22:49.461Z,991.21
2019-03-18T04:23:49.434Z,991.21
2019-03-18T04:24:49.408Z,991.18
2019-03-18T04:25:49.381Z,991.19
2019-03-18T04:26:49.360Z,991.22
2019-03-18T04:27:49.338Z,991.16
2019-03-18T04:28:49.322Z,991.15
2019-03-18T04:29:49.298Z,991.26
2019-03-18T04:30:49.278Z,991.22
2019-03-18T04:31:49.258Z,991.24
2019-03-18T04:32:49.241Z,991.23
2019-03-18T04:33:49.216Z,991.25
2019-03-18T04:34:49.228Z,991.25
2019-03-18T04:35:49.173Z,991.29
2019-03-18T04:36:49.155Z,991.29
2019-03-18T04:37:49.130Z,991.30
2019-03-18T04:38:49.114Z,991.29
2019-03-18T04:39:49.089Z,991.29
2019-03-18T04:40:49.074Z,991.29
2019-03-18T04:41:49.057Z,991.28
2019-03-18T04:42:49.027Z,991.20
2019-03-18T04:43:49.005Z,991.23
2019-03-18T04:44:48.986Z,991.27
2019-03-18T04:45:48.974Z,991.27
2019-03-18T04:46:48.944Z,991.29
2019-03-18T04:47:48.925Z,991.32
2019-03-18T04:48:48.901Z,991.34
2019-03-18T04:49:48.879Z,991.28
2019-03-18T04:50:48.862Z,991.31
2019-03-18T04:51:48.839Z,991.31
2019-03-18T04:52:48.819Z,991.35
2019-03-18T04:53:48.795Z,991.33
2019-03-18T04:54:48.773Z,991.38
2019-03-18T04:55:48.755Z,991.43
2019-03-18T04:56:48.753Z,991.41
2019-03-18T04:57:48.719Z,991.37
2019-03-18T04:58:48.700Z,991.40
2019-03-18T04:59:48.675Z,991.47
2019-03-18T05:00:48.654Z,991.42
2019-03-18T05:01:48.636Z,991.45
2019-03-18T05:02:48.610Z,991.44
2019-03-18T05:03:48.592Z,991.40
2019-03-18T05:04:48.574Z,991.38
2019-03-18T05:05:48.553Z,991.43
2019-03-18T05:06:48.530Z,991.43
2019-03-18T05:07:48.510Z,991.47
2019-03-18T05:08:48.488Z,991.50
2019-03-18T05:09:48.470Z,991.50
2019-03-18T05:10:48.447Z,991.58
2019-03-18T05:11:48.429Z,991.53
2019-03-18T05:12:48.404Z,991.58
2019-03-18T05:13:48.499Z,991.55
2019-03-18T05:14:48.375Z,991.58
2019-03-18T05:15:48.346Z,991.56
2019-03-18T05:16:48.324Z,991.61
2019-03-18T05:17:48.312Z,991.61
2019-03-18T05:18:48.281Z,991.55
2019-03-18T05:19:48.261Z,991.61
2019-03-18T05:20:48.244Z,991.65
2019-03-18T05:21:48.221Z,991.57
2019-03-18T05:22:48.201Z,991.56
2019-03-18T05:23:48.186Z,991.59
2019-03-18T05:24:48.159Z,991.57
2019-03-18T05:25:48.137Z,991.51
2019-03-18T05:26:48.121Z,991.57
2019-03-18T05:27:48.096Z,991.57
2019-03-18T05:28:48.077Z,991.57
2019-03-18T05:29:48.058Z,991.54
2019-03-18T05:30:48.035Z,991.56
2019-03-18T05:31:48.017Z,991.53
2019-03-18T05:32:47.994Z,991.54
2019-03-18T05:33:47.972Z,991.51
2019-03-18T05:34:50.778Z,991.55
2019-03-18T05:35:47.934Z,991.54
2019-03-18T05:36:47.914Z,991.54
2019-03-18T05:37:47.893Z,991.59
2019-03-18T05:38:47.883Z,991.61
2019-03-18T05:39:47.855Z,991.62
2019-03-18T05:40:47.835Z,991.66
2019-03-18T05:41:47.810Z,991.76
2019-03-18T05:42:47.790Z,991.73
2019-03-18T05:43:47.774Z,991.80
2019-03-18T05:44:47.748Z,991.79
2019-03-18T05:45:47.727Z,991.80
2019-03-18T05:46:47.703Z,991.88
2019-03-18T05:47:47.687Z,991.85
2019-03-18T05:48:47.662Z,991.87
2019-03-18T05:49:47.645Z,991.95
2019-03-18T05:50:47.624Z,991.94
2019-03-18T05:51:47.614Z,991.98
2019-03-18T05:52:47.584Z,991.95
2019-03-18T05:53:47.563Z,991.94
2019-03-18T05:54:47.544Z,991.97
2019-03-18T05:55:47.522Z,992.00
2019-03-18T05:56:47.600Z,992.00
2019-03-18T05:57:47.482Z,992.03
2019-03-18T05:58:47.462Z,992.03
2019-03-18T05:59:47.445Z,992.04
2019-03-18T06:00:47.423Z,992.02
2019-03-18T06:01:47.400Z,992.06
2019-03-18T06:02:47.500Z,992.07
2019-03-18T06:03:47.362Z,992.07
2019-03-18T06:04:47.342Z,992.09
2019-03-18T06:05:47.318Z,992.16
2019-03-18T06:06:47.301Z,992.12
2019-03-18T06:07:47.286Z,992.07
2019-03-18T06:08:47.257Z,992.12
2019-03-18T06:09:47.258Z,992.08
2019-03-18T06:10:47.218Z,992.09
2019-03-18T06:11:47.196Z,992.11
2019-03-18T06:12:47.178Z,992.23
2019-03-18T06:13:47.154Z,992.23
2019-03-18T06:14:47.136Z,992.23
2019-03-18T06:15:47.115Z,992.21
2019-03-18T06:16:47.098Z,992.21
2019-03-18T06:17:52.834Z,992.23
2019-03-18T06:18:47.058Z,992.25
2019-03-18T06:19:47.037Z,992.27
2019-03-18T06:20:47.049Z,992.30
2019-03-18T06:21:46.993Z,992.30
2019-03-18T06:22:46.972Z,992.26
2019-03-18T06:23:46.957Z,992.22
2019-03-18T06:24:46.937Z,992.25
2019-03-18T06:25:46.909Z,992.22
2019-03-18T06:26:46.888Z,992.23
2019-03-18T06:27:46.870Z,992.24
2019-03-18T06:28:46.849Z,992.31
2019-03-18T06:29:46.828Z,992.21
2019-03-18T06:30:46.812Z,992.30
2019-03-18T06:31:46.796Z,992.41
2019-03-18T06:32:46.768Z,992.39
2019-03-18T06:33:46.756Z,992.42
2019-03-18T06:34:46.729Z,992.43
2019-03-18T06:35:46.707Z,992.46
2019-03-18T06:36:46.692Z,992.48
2019-03-18T06:37:46.665Z,992.52
2019-03-18T06:38:46.643Z,992.54
2019-03-18T06:39:46.628Z,992.59
2019-03-18T06:40:46.603Z,992.58
2019-03-18T06:41:46.581Z,992.58
2019-03-18T06:42:46.561Z,992.59
2019-03-18T06:43:46.546Z,992.69
2019-03-18T06:44:46.528Z,992.66
2019-03-18T06:45:46.511Z,992.68
2019-03-18T06:46:46.520Z,992.70
2019-03-18T06:47:46.461Z,992.69
2019-03-18T06:48:46.446Z,992.73
2019-03-18T06:49:46.420Z,992.77
2019-03-18T06:50:46.399Z,992.71
2019-03-18T06:51:46.383Z,992.76
2019-03-18T06:52:46.364Z,992.82
2019-03-18T06:53:46.341Z,992.80
2019-03-18T06:54:46.324Z,992.79
2019-03-18T06:55:46.299Z,992.77
2019-03-18T06:56:46.281Z,992.82
2019-03-18T06:57:46.259Z,992.83
2019-03-18T06:58:46.241Z,992.91
2019-03-18T06:59:46.219Z,992.89
2019-03-18T07:00:46.199Z,992.88
2019-03-18T07:01:46.179Z,992.92
2019-03-18T07:02:46.159Z,992.92
2019-03-18T07:03:46.138Z,992.92
2019-03-18T07:04:46.116Z,992.95
2019-03-18T07:05:46.331Z,992.92
2019-03-18T07:06:46.088Z,992.87
2019-03-18T07:07:46.057Z,992.94
2019-03-18T07:08:46.039Z,992.89
2019-03-18T07:09:46.019Z,992.94
2019-03-18T07:10:45.995Z,992.95
2019-03-18T07:11:45.976Z,992.96
2019-03-18T07:12:45.977Z,992.95
2019-03-18T07:13:45.941Z,993.02
2019-03-18T07:14:45.915Z,992.99
2019-03-18T07:15:45.897Z,993.01
2019-03-18T07:16:45.880Z,993.05
2019-03-18T07:17:45.859Z,993.03
2019-03-18T07:18:45.841Z,993.02
2019-03-18T07:19:45.817Z,993.02
2019-03-18T07:20:45.802Z,993.08
2019-03-18T07:21:45.777Z,993.03
2019-03-18T07:22:45.758Z,993.07
2019-03-18T07:23:45.739Z,993.10
2019-03-18T07:24:45.720Z,993.15
2019-03-18T07:25:45.697Z,993.16
2019-03-18T07:26:45.679Z,993.15
2019-03-18T07:27:45.663Z,993.10
2019-03-18T07:28:45.641Z,993.14
2019-03-18T07:29:45.621Z,993.16
2019-03-18T07:30:45.604Z,993.18
2019-03-18T07:31:45.583Z,993.20
2019-03-18T07:32:45.564Z,993.21
2019-03-18T07:33:45.543Z,993.15
2019-03-18T07:34:45.528Z,993.22
2019-03-18T07:35:45.504Z,993.25
2019-03-18T07:36:45.485Z,993.24
2019-03-18T07:37:45.465Z,993.32
2019-03-18T07:38:45.469Z,993.31
2019-03-18T07:39:45.426Z,993.36
2019-03-18T07:40:45.408Z,993.35
2019-03-18T07:41:45.386Z,993.39
2019-03-18T07:42:45.368Z,993.40
2019-03-18T07:43:45.352Z,993.40
2019-03-18T07:44:45.333Z,993.36
2019-03-18T07:45:45.311Z,993.40
2019-03-18T07:46:45.300Z,993.40
2019-03-18T07:47:45.272Z,993.42
2019-03-18T07:48:45.260Z,993.44
2019-03-18T07:49:45.238Z,993.51
2019-03-18T07:50:45.215Z,993.43
2019-03-18T07:51:45.197Z,993.48
2019-03-18T07:52:45.176Z,993.49
2019-03-18T07:53:45.157Z,993.41
2019-03-18T07:54:45.139Z,993.44
2019-03-18T07:55:45.119Z,993.48
2019-03-18T07:56:45.098Z,993.48
2019-03-18T07:57:45.080Z,993.47
2019-03-18T07:58:45.063Z,993.44
2019-03-18T07:59:45.042Z,993.43
2019-03-18T08:00:45.098Z,993.49
2019-03-18T08:01:45.006Z,993.51
2019-03-18T08:02:45.100Z,993.51
2019-03-18T08:03:44.964Z,993.51
2019-03-18T08:04:44.946Z,993.50
2019-03-18T08:05:44.922Z,993.60
2019-03-18T08:06:44.958Z,993.58
2019-03-18T08:07:44.889Z,993.62
2019-03-18T08:08:44.871Z,993.61
2019-03-18T08:09:44.849Z,993.59
2019-03-18T08:10:44.836Z,993.64
2019-03-18T08:11:44.813Z,993.62
2019-03-18T08:12:44.794Z,993.61
2019-03-18T08:13:44.775Z,993.65
2019-03-18T08:14:44.779Z,993.75
2019-03-18T08:15:44.755Z,993.72
2019-03-18T08:16:44.718Z,993.79
2019-03-18T08:17:44.693Z,993.84
2019-03-18T08:18:44.677Z,993.80
2019-03-18T08:19:44.657Z,993.82
2019-03-18T08:20:44.642Z,993.86
2019-03-18T08:21:44.625Z,993.85
2019-03-18T08:22:44.601Z,993.84
2019-03-18T08:23:44.586Z,993.90
2019-03-18T08:24:44.575Z,993.86
2019-03-18T08:25:44.540Z,993.84
2019-03-18T08:26:44.523Z,993.83
2019-03-18T08:27:44.504Z,993.86
2019-03-18T08:28:44.488Z,993.89
2019-03-18T08:29:44.463Z,993.88
2019-03-18T08:30:44.445Z,993.90
2019-03-18T08:31:44.426Z,994.00
2019-03-18T08:32:44.424Z,994.01
2019-03-18T08:33:44.386Z,994.04
2019-03-18T08:34:44.368Z,994.03
2019-03-18T08:35:44.402Z,994.02
2019-03-18T08:36:44.329Z,994.02
2019-03-18T08:37:44.308Z,993.99
2019-03-18T08:38:44.291Z,994.00
2019-03-18T08:39:44.271Z,993.93
2019-03-18T08:40:44.252Z,993.96
2019-03-18T08:41:44.228Z,993.94
2019-03-18T08:42:44.212Z,993.98
2019-03-18T08:43:44.192Z,993.95
2019-03-18T08:44:44.173Z,993.94
2019-03-18T08:45:44.152Z,993.97
2019-03-18T08:46:44.150Z,993.97
2019-03-18T08:47:44.115Z,994.00
2019-03-18T08:48:55.374Z,993.98
2019-03-18T08:49:44.081Z,993.99
2019-03-18T08:50:44.055Z,994.01
2019-03-18T08:51:44.037Z,994.08
2019-03-18T08:52:44.109Z,994.06
2019-03-18T08:53:43.994Z,994.03
2019-03-18T08:54:43.975Z,994.02
2019-03-18T08:55:43.961Z,994.06
2019-03-18T08:56:43.938Z,994.09
2019-03-18T08:57:43.920Z,994.12
2019-03-18T08:58:43.899Z,994.12
2019-03-18T08:59:43.889Z,994.10
2019-03-18T09:00:43.870Z,994.15
2019-03-18T09:01:43.860Z,994.13
2019-03-18T09:02:43.821Z,994.15
2019-03-18T09:03:43.802Z,994.12
2019-03-18T09:04:43.783Z,994.07
2019-03-18T09:05:43.772Z,994.13
2019-03-18T09:06:43.746Z,994.15
2019-03-18T09:07:43.730Z,994.28
2019-03-18T09:08:43.707Z,994.23
2019-03-18T09:09:43.684Z,994.25
2019-03-18T09:10:43.666Z,994.24
2019-03-18T09:11:43.648Z,994.27
2019-03-18T09:12:43.627Z,994.32
2019-03-18T09:13:43.608Z,994.28
2019-03-18T09:14:43.589Z,994.34
2019-03-18T09:15:43.574Z,994.35
2019-03-18T09:16:43.549Z,994.38
2019-03-18T09:17:43.526Z,994.41
2019-03-18T09:18:43.512Z,994.43
2019-03-18T09:19:43.493Z,994.48
2019-03-18T09:20:43.473Z,994.42
2019-03-18T09:21:43.455Z,994.41
2019-03-18T09:22:43.434Z,994.43
2019-03-18T09:23:43.415Z,994.41
2019-03-18T09:24:43.397Z,994.44
2019-03-18T09:25:43.377Z,994.45
2019-03-18T09:26:43.361Z,994.47
2019-03-18T09:27:43.342Z,994.54
2019-03-18T09:28:43.343Z,994.55
2019-03-18T09:29:43.298Z,994.56
2019-03-18T09:30:43.285Z,994.54
2019-03-18T09:31:43.264Z,994.51
2019-03-18T09:32:43.246Z,994.55
2019-03-18T09:33:43.223Z,994.60
2019-03-18T09:34:43.206Z,994.58
2019-03-18T09:35:43.187Z,994.58
2019-03-18T09:36:43.178Z,994.58
2019-03-18T09:37:43.146Z,994.62
2019-03-18T09:38:43.129Z,994.64
2019-03-18T09:39:43.112Z,994.63
2019-03-18T09:40:43.091Z,994.65
2019-03-18T09:41:43.072Z,994.63
2019-03-18T09:42:43.053Z,994.61
2019-03-18T09:43:43.043Z,994.66
2019-03-18T09:44:43.019Z,994.65
2019-03-18T09:45:42.999Z,994.74
2019-03-18T09:46:42.982Z,994.72
2019-03-18T09:47:42.958Z,994.73
2019-03-18T09:48:42.940Z,994.72
2019-03-18T09:49:42.925Z,994.69
2019-03-18T09:50:42.904Z,994.75
2019-03-18T09:51:42.885Z,994.72
2019-03-18T09:52:42.865Z,994.72
2019-03-18T09:53:42.840Z,994.71
2019-03-18T09:54:42.836Z,994.70
2019-03-18T09:55:42.807Z,994.66
2019-03-18T09:56:42.791Z,994.66
2019-03-18T09:57:42.776Z,994.63
2019-03-18T09:58:42.755Z,994.66
2019-03-18T09:59:42.734Z,994.68
2019-03-18T10:00:42.716Z,994.70
2019-03-18T10:01:44.486Z,994.72
2019-03-18T10:02:42.685Z,994.75
2019-03-18T10:03:42.665Z,994.71
2019-03-18T10:04:42.646Z,994.65
2019-03-18T10:05:43.954Z,994.75
2019-03-18T10:06:42.606Z,994.79
2019-03-18T10:07:42.594Z,994.78
2019-03-18T10:08:42.577Z,994.72
2019-03-18T10:09:42.553Z,994.72
2019-03-18T10:10:42.534Z,994.76
2019-03-18T10:11:42.519Z,994.83
2019-03-18T10:12:42.503Z,994.78
2019-03-18T10:13:42.504Z,994.82
2019-03-18T10:14:42.465Z,994.84
2019-03-18T10:15:42.447Z,994.85
2019-03-18T10:16:42.429Z,994.86
2019-03-18T10:17:42.413Z,994.93
2019-03-18T10:18:42.395Z,994.94
2019-03-18T10:19:42.378Z,994.88
2019-03-18T10:20:42.363Z,994.90
2019-03-18T10:21:42.339Z,994.95
2019-03-18T10:22:42.322Z,994.94
2019-03-18T10:23:42.307Z,994.96
2019-03-18T10:24:42.291Z,994.93
2019-03-18T10:25:42.276Z,994.94
2019-03-18T10:26:42.256Z,995.01
2019-03-18T10:27:42.237Z,995.04
2019-03-18T10:28:42.220Z,995.03
2019-03-18T10:29:42.199Z,995.02
2019-03-18T10:30:42.209Z,994.97
2019-03-18T10:31:42.165Z,995.04
2019-03-18T10:32:42.150Z,994.98
2019-03-18T10:33:44.911Z,995.01
2019-03-18T10:34:42.161Z,995.01
2019-03-18T10:35:42.094Z,994.97
2019-03-18T10:36:42.080Z,995.02
2019-03-18T10:37:42.051Z,994.97
2019-03-18T10:38:42.047Z,995.00
2019-03-18T10:39:42.028Z,995.02
2019-03-18T10:40:42.006Z,995.04
2019-03-18T10:41:41.989Z,995.03
2019-03-18T10:42:41.975Z,995.03
2019-03-18T10:43:41.954Z,995.08
2019-03-18T10:44:41.937Z,995.03
2019-03-18T10:45:41.927Z,995.03
2019-03-18T10:46:41.898Z,995.09
2019-03-18T10:47:41.906Z,995.07
2019-03-18T10:48:41.868Z,995.09
2019-03-18T10:49:46.283Z,995.02
2019-03-18T10:50:41.831Z,995.01
2019-03-18T10:51:41.817Z,995.10
2019-03-18T10:52:41.801Z,995.03
2019-03-18T10:53:44.479Z,995.01
2019-03-18T10:54:41.785Z,995.06
2019-03-18T10:55:41.744Z,995.04
2019-03-18T10:56:41.738Z,995.03
2019-03-18T10:57:41.708Z,995.09
2019-03-18T10:58:41.693Z,995.02
2019-03-18T10:59:41.676Z,995.03
2019-03-18T11:00:41.775Z,995.03
2019-03-18T11:01:41.639Z,995.05
2019-03-18T11:02:44.650Z,995.05
2019-03-18T11:03:41.608Z,995.11
2019-03-18T11:04:41.593Z,995.15
2019-03-18T11:05:41.576Z,995.12
2019-03-18T11:06:41.554Z,995.08
2019-03-18T11:07:41.540Z,995.13
2019-03-18T11:08:41.523Z,995.12
2019-03-18T11:09:41.519Z,995.10
2019-03-18T11:10:41.490Z,995.07
2019-03-18T11:11:41.482Z,995.13
2019-03-18T11:12:41.462Z,995.14
2019-03-18T11:13:41.442Z,995.11
2019-03-18T11:14:41.423Z,995.20
2019-03-18T11:15:41.410Z,995.10
2019-03-18T11:16:41.394Z,995.10
2019-03-18T11:17:41.377Z,995.15
2019-03-18T11:18:41.359Z,995.10
2019-03-18T11:19:41.371Z,995.19
2019-03-18T11:20:41.326Z,995.17
2019-03-18T11:21:41.311Z,995.26
2019-03-18T11:22:41.319Z,995.26
2019-03-18T11:23:41.274Z,995.25
2019-03-18T11:24:41.256Z,995.28
2019-03-18T11:25:41.243Z,995.28
2019-03-18T11:26:41.223Z,995.36
2019-03-18T11:27:41.264Z,995.31
2019-03-18T11:28:41.188Z,995.40
2019-03-18T11:29:41.173Z,995.32
2019-03-18T11:30:41.155Z,995.26
2019-03-18T11:31:41.137Z,995.30
2019-03-18T11:32:41.120Z,995.31
2019-03-18T11:33:41.107Z,995.26
2019-03-18T11:34:41.084Z,995.31
2019-03-18T11:35:41.068Z,995.37
2019-03-18T11:36:41.051Z,995.31
2019-03-18T11:37:41.040Z,995.30
2019-03-18T11:38:41.019Z,995.29
2019-03-18T11:39:41.001Z,995.29
2019-03-18T11:40:40.981Z,995.23
2019-03-18T11:41:40.965Z,995.20
2019-03-18T11:42:40.945Z,995.11
2019-03-18T11:43:40.926Z,995.17
2019-03-18T11:44:40.908Z,995.12
2019-03-18T11:45:40.890Z,995.15
2019-03-18T11:46:40.873Z,995.17
2019-03-18T11:47:40.859Z,995.12
2019-03-18T11:48:40.837Z,995.10
2019-03-18T11:49:40.817Z,995.11
2019-03-18T11:50:41.527Z,995.09
2019-03-18T11:51:40.795Z,995.05
2019-03-18T11:52:40.765Z,995.04
2019-03-18T11:53:40.747Z,995.09
2019-03-18T11:54:40.729Z,995.06
2019-03-18T11:55:40.711Z,995.03
2019-03-18T11:56:40.701Z,995.01
2019-03-18T11:57:40.676Z,994.97
2019-03-18T11:58:40.661Z,994.98
2019-03-18T11:59:40.642Z,995.00
2019-03-18T12:00:40.626Z,994.94
2019-03-18T12:01:40.608Z,994.99
2019-03-18T12:02:40.594Z,995.00
2019-03-18T12:03:40.577Z,995.02
2019-03-18T12:04:40.565Z,994.95
2019-03-18T12:05:40.549Z,994.95
2019-03-18T12:06:40.531Z,994.93
2019-03-18T12:07:40.522Z,994.94
2019-03-18T12:08:40.504Z,994.98
2019-03-18T12:09:40.493Z,994.95
2019-03-18T12:10:40.476Z,995.01
2019-03-18T12:11:40.461Z,995.04
2019-03-18T12:12:40.445Z,995.04
2019-03-18T12:13:40.429Z,995.00
2019-03-18T12:14:40.418Z,995.06
2019-03-18T12:15:40.400Z,995.03
2019-03-18T12:16:40.385Z,995.06
2019-03-18T12:17:40.371Z,995.04
2019-03-18T12:18:40.359Z,995.04
2019-03-18T12:19:40.362Z,995.04
2019-03-18T12:20:40.329Z,995.03
2019-03-18T12:21:40.318Z,994.99
2019-03-18T12:22:40.300Z,995.03
2019-03-18T12:23:40.288Z,995.00
2019-03-18T12:24:40.267Z,995.02
2019-03-18T12:25:40.258Z,994.97
2019-03-18T12:26:40.248Z,994.95
2019-03-18T12:27:40.234Z,995.00
2019-03-18T12:28:40.223Z,994.98